sensor_id;sensor_type;location;lat;lon;timestamp;P1;durP1;ratioP1;P2;durP2;ratioP2
73515;SDS011;61763;51.416;5.442;2022-08-19T00:00:09;29.58;;;17.58;;
73515;SDS011;61763;51.416;5.442;2022-08-19T00:02:35;28.23;;;17.95;;
73515;SDS011;61763;51.416;5.442;2022-08-19T00:05:01;27.70;;;18.23;;
73515;SDS011;61763;51.416;5.442;2022-08-19T00:09:54;33.40;;;20.13;;
73515;SDS011;61763;51.416;5.442;2022-08-19T00:12:19;32.38;;;19.30;;
73515;SDS011;61763;51.416;5.442;2022-08-19T00:14:45;34.00;;;19.35;;
73515;SDS011;61763;51.416;5.442;2022-08-19T00:17:11;31.50;;;19.52;;
73515;SDS011;61763;51.416;5.442;2022-08-19T00:19:36;37.10;;;20.58;;
73515;SDS011;61763;51.416;5.442;2022-08-19T00:24:30;30.33;;;19.55;;
73515;SDS011;61763;51.416;5.442;2022-08-19T00:26:56;30.55;;;17.85;;
73515;SDS011;61763;51.416;5.442;2022-08-19T00:29:24;30.85;;;18.63;;
73515;SDS011;61763;51.416;5.442;2022-08-19T00:31:51;35.08;;;21.13;;
73515;SDS011;61763;51.416;5.442;2022-08-19T00:34:21;34.28;;;18.60;;
73515;SDS011;61763;51.416;5.442;2022-08-19T00:36:48;31.58;;;18.80;;
73515;SDS011;61763;51.416;5.442;2022-08-19T00:39:14;31.77;;;17.02;;
73515;SDS011;61763;51.416;5.442;2022-08-19T00:41:41;36.22;;;19.95;;
73515;SDS011;61763;51.416;5.442;2022-08-19T00:44:13;37.65;;;18.98;;
73515;SDS011;61763;51.416;5.442;2022-08-19T00:46:41;42.58;;;23.25;;
73515;SDS011;61763;51.416;5.442;2022-08-19T00:52:00;47.38;;;22.17;;
73515;SDS011;61763;51.416;5.442;2022-08-19T00:54:29;40.05;;;23.05;;
73515;SDS011;61763;51.416;5.442;2022-08-19T00:56:56;36.10;;;20.30;;
73515;SDS011;61763;51.416;5.442;2022-08-19T00:59:23;42.97;;;21.70;;
73515;SDS011;61763;51.416;5.442;2022-08-19T01:01:48;37.00;;;20.33;;
73515;SDS011;61763;51.416;5.442;2022-08-19T01:04:14;36.08;;;18.50;;
73515;SDS011;61763;51.416;5.442;2022-08-19T01:06:39;39.97;;;19.23;;
73515;SDS011;61763;51.416;5.442;2022-08-19T01:09:06;49.42;;;23.50;;
73515;SDS011;61763;51.416;5.442;2022-08-19T01:11:36;44.28;;;22.63;;
73515;SDS011;61763;51.416;5.442;2022-08-19T01:14:05;50.83;;;25.20;;
73515;SDS011;61763;51.416;5.442;2022-08-19T01:16:32;54.50;;;24.17;;
73515;SDS011;61763;51.416;5.442;2022-08-19T01:18:59;49.67;;;23.13;;
73515;SDS011;61763;51.416;5.442;2022-08-19T01:21:32;55.78;;;24.98;;
73515;SDS011;61763;51.416;5.442;2022-08-19T01:24:04;53.92;;;26.77;;
73515;SDS011;61763;51.416;5.442;2022-08-19T01:26:29;57.00;;;26.02;;
73515;SDS011;61763;51.416;5.442;2022-08-19T01:28:56;48.65;;;24.17;;
73515;SDS011;61763;51.416;5.442;2022-08-19T01:31:24;60.95;;;25.35;;
73515;SDS011;61763;51.416;5.442;2022-08-19T01:33:51;54.92;;;24.67;;
73515;SDS011;61763;51.416;5.442;2022-08-19T01:36:22;61.03;;;27.90;;
73515;SDS011;61763;51.416;5.442;2022-08-19T01:38:51;60.47;;;27.08;;
73515;SDS011;61763;51.416;5.442;2022-08-19T01:41:17;79.50;;;30.77;;
73515;SDS011;61763;51.416;5.442;2022-08-19T01:43:43;62.83;;;28.33;;
73515;SDS011;61763;51.416;5.442;2022-08-19T01:46:09;75.90;;;29.95;;
73515;SDS011;61763;51.416;5.442;2022-08-19T01:48:39;65.20;;;25.15;;
73515;SDS011;61763;51.416;5.442;2022-08-19T01:51:07;59.63;;;25.27;;
73515;SDS011;61763;51.416;5.442;2022-08-19T01:53:34;53.50;;;26.10;;
73515;SDS011;61763;51.416;5.442;2022-08-19T01:56:01;57.85;;;24.02;;
73515;SDS011;61763;51.416;5.442;2022-08-19T01:58:28;48.72;;;22.63;;
73515;SDS011;61763;51.416;5.442;2022-08-19T02:00:58;59.00;;;25.40;;
73515;SDS011;61763;51.416;5.442;2022-08-19T02:03:24;55.63;;;21.98;;
73515;SDS011;61763;51.416;5.442;2022-08-19T02:05:53;56.22;;;24.27;;
73515;SDS011;61763;51.416;5.442;2022-08-19T02:08:27;61.92;;;24.63;;
73515;SDS011;61763;51.416;5.442;2022-08-19T02:10:54;70.20;;;26.73;;
73515;SDS011;61763;51.416;5.442;2022-08-19T02:13:19;68.03;;;26.83;;
73515;SDS011;61763;51.416;5.442;2022-08-19T02:15:45;62.03;;;28.17;;
73515;SDS011;61763;51.416;5.442;2022-08-19T02:18:10;83.45;;;34.45;;
73515;SDS011;61763;51.416;5.442;2022-08-19T02:20:37;62.78;;;26.60;;
73515;SDS011;61763;51.416;5.442;2022-08-19T02:23:04;58.80;;;25.80;;
73515;SDS011;61763;51.416;5.442;2022-08-19T02:25:31;67.80;;;28.35;;
73515;SDS011;61763;51.416;5.442;2022-08-19T02:27:56;62.30;;;28.73;;
73515;SDS011;61763;51.416;5.442;2022-08-19T02:30:22;60.33;;;28.67;;
73515;SDS011;61763;51.416;5.442;2022-08-19T02:32:47;56.17;;;25.55;;
73515;SDS011;61763;51.416;5.442;2022-08-19T02:35:13;63.78;;;30.27;;
73515;SDS011;61763;51.416;5.442;2022-08-19T02:37:39;65.57;;;30.75;;
73515;SDS011;61763;51.416;5.442;2022-08-19T02:42:50;65.65;;;28.05;;
73515;SDS011;61763;51.416;5.442;2022-08-19T02:45:15;67.90;;;30.40;;
73515;SDS011;61763;51.416;5.442;2022-08-19T02:47:41;55.67;;;26.60;;
73515;SDS011;61763;51.416;5.442;2022-08-19T02:50:07;53.63;;;24.85;;
73515;SDS011;61763;51.416;5.442;2022-08-19T02:52:33;63.67;;;28.45;;
73515;SDS011;61763;51.416;5.442;2022-08-19T02:54:59;65.35;;;30.40;;
73515;SDS011;61763;51.416;5.442;2022-08-19T02:57:26;64.65;;;31.00;;
73515;SDS011;61763;51.416;5.442;2022-08-19T02:59:51;63.97;;;30.88;;
73515;SDS011;61763;51.416;5.442;2022-08-19T03:02:17;64.82;;;31.10;;
73515;SDS011;61763;51.416;5.442;2022-08-19T03:04:42;63.55;;;30.73;;
73515;SDS011;61763;51.416;5.442;2022-08-19T03:07:08;57.53;;;26.25;;
73515;SDS011;61763;51.416;5.442;2022-08-19T03:09:36;61.40;;;27.77;;
73515;SDS011;61763;51.416;5.442;2022-08-19T03:12:04;64.70;;;30.55;;
73515;SDS011;61763;51.416;5.442;2022-08-19T03:14:30;64.15;;;28.90;;
73515;SDS011;61763;51.416;5.442;2022-08-19T03:16:57;74.28;;;35.60;;
73515;SDS011;61763;51.416;5.442;2022-08-19T03:19:22;66.15;;;32.22;;
73515;SDS011;61763;51.416;5.442;2022-08-19T03:21:48;71.30;;;33.15;;
73515;SDS011;61763;51.416;5.442;2022-08-19T03:24:15;88.45;;;38.25;;
73515;SDS011;61763;51.416;5.442;2022-08-19T03:26:43;82.47;;;34.85;;
73515;SDS011;61763;51.416;5.442;2022-08-19T03:29:11;69.20;;;33.60;;
73515;SDS011;61763;51.416;5.442;2022-08-19T03:31:37;74.78;;;33.33;;
73515;SDS011;61763;51.416;5.442;2022-08-19T03:34:04;71.85;;;34.45;;
73515;SDS011;61763;51.416;5.442;2022-08-19T03:36:30;80.90;;;38.22;;
73515;SDS011;61763;51.416;5.442;2022-08-19T03:38:57;83.07;;;35.00;;
73515;SDS011;61763;51.416;5.442;2022-08-19T03:41:25;76.82;;;33.90;;
73515;SDS011;61763;51.416;5.442;2022-08-19T03:43:56;72.03;;;34.00;;
73515;SDS011;61763;51.416;5.442;2022-08-19T03:46:23;72.72;;;34.63;;
73515;SDS011;61763;51.416;5.442;2022-08-19T03:48:54;79.50;;;35.05;;
73515;SDS011;61763;51.416;5.442;2022-08-19T03:53:52;93.65;;;39.63;;
73515;SDS011;61763;51.416;5.442;2022-08-19T03:56:19;107.68;;;41.67;;
73515;SDS011;61763;51.416;5.442;2022-08-19T03:58:45;109.18;;;42.47;;
73515;SDS011;61763;51.416;5.442;2022-08-19T04:01:13;126.85;;;42.45;;
73515;SDS011;61763;51.416;5.442;2022-08-19T04:03:40;107.75;;;42.33;;
73515;SDS011;61763;51.416;5.442;2022-08-19T04:08:57;109.18;;;40.40;;
73515;SDS011;61763;51.416;5.442;2022-08-19T04:11:24;93.63;;;38.95;;
73515;SDS011;61763;51.416;5.442;2022-08-19T04:13:53;118.95;;;41.03;;
73515;SDS011;61763;51.416;5.442;2022-08-19T04:16:19;92.97;;;36.53;;
73515;SDS011;61763;51.416;5.442;2022-08-19T04:18:46;95.07;;;34.17;;
73515;SDS011;61763;51.416;5.442;2022-08-19T04:21:20;99.85;;;37.40;;
73515;SDS011;61763;51.416;5.442;2022-08-19T04:23:47;93.82;;;37.13;;
73515;SDS011;61763;51.416;5.442;2022-08-19T04:26:17;114.25;;;42.13;;
73515;SDS011;61763;51.416;5.442;2022-08-19T04:28:45;118.43;;;40.20;;
73515;SDS011;61763;51.416;5.442;2022-08-19T04:31:15;155.63;;;45.78;;
73515;SDS011;61763;51.416;5.442;2022-08-19T04:33:42;144.70;;;44.53;;
73515;SDS011;61763;51.416;5.442;2022-08-19T04:36:08;165.93;;;47.30;;
73515;SDS011;61763;51.416;5.442;2022-08-19T04:41:06;127.70;;;41.00;;
73515;SDS011;61763;51.416;5.442;2022-08-19T04:43:50;134.38;;;39.22;;
73515;SDS011;61763;51.416;5.442;2022-08-19T04:46:16;124.93;;;40.75;;
73515;SDS011;61763;51.416;5.442;2022-08-19T04:48:42;127.50;;;46.47;;
73515;SDS011;61763;51.416;5.442;2022-08-19T04:51:09;120.28;;;42.80;;
73515;SDS011;61763;51.416;5.442;2022-08-19T04:53:38;131.93;;;46.67;;
73515;SDS011;61763;51.416;5.442;2022-08-19T04:56:09;146.18;;;49.50;;
73515;SDS011;61763;51.416;5.442;2022-08-19T05:01:06;130.38;;;44.10;;
73515;SDS011;61763;51.416;5.442;2022-08-19T05:03:34;137.35;;;42.05;;
73515;SDS011;61763;51.416;5.442;2022-08-19T05:06:05;129.57;;;46.08;;
73515;SDS011;61763;51.416;5.442;2022-08-19T05:08:37;129.52;;;44.25;;
73515;SDS011;61763;51.416;5.442;2022-08-19T05:11:10;118.30;;;44.83;;
73515;SDS011;61763;51.416;5.442;2022-08-19T05:13:47;121.97;;;43.53;;
73515;SDS011;61763;51.416;5.442;2022-08-19T05:16:17;138.13;;;48.20;;
73515;SDS011;61763;51.416;5.442;2022-08-19T05:18:45;133.32;;;47.45;;
73515;SDS011;61763;51.416;5.442;2022-08-19T05:21:30;125.57;;;45.35;;
73515;SDS011;61763;51.416;5.442;2022-08-19T05:24:15;131.40;;;41.58;;
73515;SDS011;61763;51.416;5.442;2022-08-19T05:26:42;113.55;;;40.90;;
73515;SDS011;61763;51.416;5.442;2022-08-19T05:29:16;107.57;;;37.97;;
73515;SDS011;61763;51.416;5.442;2022-08-19T05:31:44;102.68;;;42.15;;
73515;SDS011;61763;51.416;5.442;2022-08-19T05:34:11;101.88;;;37.58;;
73515;SDS011;61763;51.416;5.442;2022-08-19T05:36:38;87.55;;;34.53;;
73515;SDS011;61763;51.416;5.442;2022-08-19T05:39:06;85.55;;;35.33;;
73515;SDS011;61763;51.416;5.442;2022-08-19T05:41:32;82.40;;;35.65;;
73515;SDS011;61763;51.416;5.442;2022-08-19T05:43:58;82.40;;;36.58;;
73515;SDS011;61763;51.416;5.442;2022-08-19T05:46:27;82.72;;;37.13;;
73515;SDS011;61763;51.416;5.442;2022-08-19T05:48:53;79.70;;;35.92;;
73515;SDS011;61763;51.416;5.442;2022-08-19T05:51:21;77.68;;;33.75;;
73515;SDS011;61763;51.416;5.442;2022-08-19T05:53:47;82.22;;;37.08;;
73515;SDS011;61763;51.416;5.442;2022-08-19T05:56:14;76.80;;;31.52;;
73515;SDS011;61763;51.416;5.442;2022-08-19T05:58:41;83.90;;;36.25;;
73515;SDS011;61763;51.416;5.442;2022-08-19T06:01:10;73.80;;;30.50;;
73515;SDS011;61763;51.416;5.442;2022-08-19T06:03:37;72.55;;;32.72;;
73515;SDS011;61763;51.416;5.442;2022-08-19T06:06:04;69.57;;;31.77;;
73515;SDS011;61763;51.416;5.442;2022-08-19T06:08:32;65.10;;;29.50;;
73515;SDS011;61763;51.416;5.442;2022-08-19T06:10:58;65.68;;;29.70;;
73515;SDS011;61763;51.416;5.442;2022-08-19T06:13:41;66.55;;;28.80;;
73515;SDS011;61763;51.416;5.442;2022-08-19T06:16:08;60.85;;;28.10;;
73515;SDS011;61763;51.416;5.442;2022-08-19T06:18:33;63.30;;;29.42;;
73515;SDS011;61763;51.416;5.442;2022-08-19T06:20:59;60.58;;;30.33;;
73515;SDS011;61763;51.416;5.442;2022-08-19T06:23:29;59.83;;;25.90;;
73515;SDS011;61763;51.416;5.442;2022-08-19T06:25:55;58.97;;;27.92;;
73515;SDS011;61763;51.416;5.442;2022-08-19T06:28:20;54.08;;;26.38;;
73515;SDS011;61763;51.416;5.442;2022-08-19T06:30:47;54.03;;;25.10;;
73515;SDS011;61763;51.416;5.442;2022-08-19T06:33:12;55.47;;;25.40;;
73515;SDS011;61763;51.416;5.442;2022-08-19T06:35:38;58.67;;;28.40;;
73515;SDS011;61763;51.416;5.442;2022-08-19T06:40:30;54.07;;;24.63;;
73515;SDS011;61763;51.416;5.442;2022-08-19T06:42:55;52.20;;;24.23;;
73515;SDS011;61763;51.416;5.442;2022-08-19T06:45:22;53.10;;;27.45;;
73515;SDS011;61763;51.416;5.442;2022-08-19T06:47:48;49.53;;;22.70;;
73515;SDS011;61763;51.416;5.442;2022-08-19T06:50:13;54.47;;;27.08;;
73515;SDS011;61763;51.416;5.442;2022-08-19T06:52:39;49.33;;;25.80;;
73515;SDS011;61763;51.416;5.442;2022-08-19T06:55:04;48.35;;;23.98;;
73515;SDS011;61763;51.416;5.442;2022-08-19T06:57:30;49.15;;;26.17;;
73515;SDS011;61763;51.416;5.442;2022-08-19T06:59:57;50.08;;;26.23;;
73515;SDS011;61763;51.416;5.442;2022-08-19T07:02:25;47.78;;;21.73;;
73515;SDS011;61763;51.416;5.442;2022-08-19T07:04:51;48.45;;;25.23;;
73515;SDS011;61763;51.416;5.442;2022-08-19T07:07:17;46.30;;;22.35;;
73515;SDS011;61763;51.416;5.442;2022-08-19T07:09:43;46.13;;;23.40;;
73515;SDS011;61763;51.416;5.442;2022-08-19T07:12:10;39.33;;;20.30;;
73515;SDS011;61763;51.416;5.442;2022-08-19T07:14:41;41.75;;;20.20;;
73515;SDS011;61763;51.416;5.442;2022-08-19T07:17:07;37.80;;;20.25;;
73515;SDS011;61763;51.416;5.442;2022-08-19T07:19:35;37.97;;;20.05;;
73515;SDS011;61763;51.416;5.442;2022-08-19T07:22:02;40.65;;;20.67;;
73515;SDS011;61763;51.416;5.442;2022-08-19T07:24:29;34.40;;;19.45;;
73515;SDS011;61763;51.416;5.442;2022-08-19T07:26:56;39.97;;;17.30;;
73515;SDS011;61763;51.416;5.442;2022-08-19T07:29:25;37.67;;;19.35;;
73515;SDS011;61763;51.416;5.442;2022-08-19T07:34:21;32.28;;;17.45;;
73515;SDS011;61763;51.416;5.442;2022-08-19T07:36:47;38.03;;;16.88;;
73515;SDS011;61763;51.416;5.442;2022-08-19T07:39:17;34.75;;;20.45;;
73515;SDS011;61763;51.416;5.442;2022-08-19T07:41:48;33.20;;;17.00;;
73515;SDS011;61763;51.416;5.442;2022-08-19T07:46:43;31.30;;;16.40;;
73515;SDS011;61763;51.416;5.442;2022-08-19T07:49:12;31.95;;;17.00;;
73515;SDS011;61763;51.416;5.442;2022-08-19T07:51:42;33.70;;;18.67;;
73515;SDS011;61763;51.416;5.442;2022-08-19T07:54:09;32.70;;;15.90;;
73515;SDS011;61763;51.416;5.442;2022-08-19T07:56:34;31.85;;;17.38;;
73515;SDS011;61763;51.416;5.442;2022-08-19T07:59:00;29.58;;;15.90;;
73515;SDS011;61763;51.416;5.442;2022-08-19T08:01:26;28.52;;;15.68;;
73515;SDS011;61763;51.416;5.442;2022-08-19T08:03:52;31.27;;;17.98;;
73515;SDS011;61763;51.416;5.442;2022-08-19T08:06:37;37.10;;;22.85;;
73515;SDS011;61763;51.416;5.442;2022-08-19T08:09:23;40.08;;;24.38;;
73515;SDS011;61763;51.416;5.442;2022-08-19T08:11:59;39.38;;;22.48;;
73515;SDS011;61763;51.416;5.442;2022-08-19T08:14:32;39.45;;;23.00;;
73515;SDS011;61763;51.416;5.442;2022-08-19T08:17:02;34.88;;;23.75;;
73515;SDS011;61763;51.416;5.442;2022-08-19T08:19:30;34.72;;;22.83;;
73515;SDS011;61763;51.416;5.442;2022-08-19T08:21:57;45.38;;;24.35;;
73515;SDS011;61763;51.416;5.442;2022-08-19T08:24:26;38.42;;;23.38;;
73515;SDS011;61763;51.416;5.442;2022-08-19T08:26:53;33.15;;;21.55;;
73515;SDS011;61763;51.416;5.442;2022-08-19T08:29:18;37.55;;;24.45;;
73515;SDS011;61763;51.416;5.442;2022-08-19T08:31:44;36.30;;;25.85;;
73515;SDS011;61763;51.416;5.442;2022-08-19T08:34:11;35.55;;;23.00;;
73515;SDS011;61763;51.416;5.442;2022-08-19T08:36:43;33.22;;;24.17;;
73515;SDS011;61763;51.416;5.442;2022-08-19T08:39:10;39.80;;;23.40;;
73515;SDS011;61763;51.416;5.442;2022-08-19T08:47:01;35.50;;;23.23;;
73515;SDS011;61763;51.416;5.442;2022-08-19T08:52:22;38.90;;;24.63;;
73515;SDS011;61763;51.416;5.442;2022-08-19T08:54:52;35.47;;;22.92;;
73515;SDS011;61763;51.416;5.442;2022-08-19T08:57:25;32.88;;;22.77;;
73515;SDS011;61763;51.416;5.442;2022-08-19T08:59:53;33.80;;;22.20;;
73515;SDS011;61763;51.416;5.442;2022-08-19T09:02:21;30.75;;;19.95;;
73515;SDS011;61763;51.416;5.442;2022-08-19T09:04:46;32.95;;;22.65;;
73515;SDS011;61763;51.416;5.442;2022-08-19T09:09:42;32.22;;;21.75;;
73515;SDS011;61763;51.416;5.442;2022-08-19T09:15:06;27.10;;;19.67;;
73515;SDS011;61763;51.416;5.442;2022-08-19T09:17:34;30.00;;;19.30;;
73515;SDS011;61763;51.416;5.442;2022-08-19T09:22:29;30.85;;;23.58;;
73515;SDS011;61763;51.416;5.442;2022-08-19T09:24:55;30.70;;;19.52;;
73515;SDS011;61763;51.416;5.442;2022-08-19T09:27:21;26.67;;;17.38;;
73515;SDS011;61763;51.416;5.442;2022-08-19T09:29:51;29.23;;;19.80;;
73515;SDS011;61763;51.416;5.442;2022-08-19T09:32:18;28.38;;;19.20;;
73515;SDS011;61763;51.416;5.442;2022-08-19T09:34:44;27.27;;;16.30;;
73515;SDS011;61763;51.416;5.442;2022-08-19T09:37:10;28.60;;;19.85;;
73515;SDS011;61763;51.416;5.442;2022-08-19T09:39:35;27.85;;;16.17;;
73515;SDS011;61763;51.416;5.442;2022-08-19T09:42:02;27.67;;;17.20;;
73515;SDS011;61763;51.416;5.442;2022-08-19T09:44:28;25.90;;;15.93;;
73515;SDS011;61763;51.416;5.442;2022-08-19T09:46:54;30.70;;;16.38;;
73515;SDS011;61763;51.416;5.442;2022-08-19T09:49:20;22.30;;;13.65;;
73515;SDS011;61763;51.416;5.442;2022-08-19T09:51:52;24.45;;;14.30;;
73515;SDS011;61763;51.416;5.442;2022-08-19T09:54:21;22.80;;;15.88;;
73515;SDS011;61763;51.416;5.442;2022-08-19T09:56:48;24.40;;;12.98;;
73515;SDS011;61763;51.416;5.442;2022-08-19T09:59:13;25.85;;;14.52;;
73515;SDS011;61763;51.416;5.442;2022-08-19T10:01:39;19.90;;;11.57;;
73515;SDS011;61763;51.416;5.442;2022-08-19T10:04:04;23.55;;;12.15;;
73515;SDS011;61763;51.416;5.442;2022-08-19T10:06:33;24.20;;;13.02;;
73515;SDS011;61763;51.416;5.442;2022-08-19T10:08:59;20.52;;;11.95;;
73515;SDS011;61763;51.416;5.442;2022-08-19T10:11:27;21.95;;;12.95;;
73515;SDS011;61763;51.416;5.442;2022-08-19T10:13:53;22.73;;;13.27;;
73515;SDS011;61763;51.416;5.442;2022-08-19T10:16:20;17.80;;;12.63;;
73515;SDS011;61763;51.416;5.442;2022-08-19T10:18:48;24.02;;;11.55;;
73515;SDS011;61763;51.416;5.442;2022-08-19T10:21:15;15.77;;;9.57;;
73515;SDS011;61763;51.416;5.442;2022-08-19T10:23:44;17.00;;;10.73;;
73515;SDS011;61763;51.416;5.442;2022-08-19T10:26:12;17.25;;;10.40;;
73515;SDS011;61763;51.416;5.442;2022-08-19T10:28:39;17.80;;;9.75;;
73515;SDS011;61763;51.416;5.442;2022-08-19T10:31:09;16.55;;;11.38;;
73515;SDS011;61763;51.416;5.442;2022-08-19T10:33:37;18.20;;;9.93;;
73515;SDS011;61763;51.416;5.442;2022-08-19T10:36:05;16.75;;;8.85;;
73515;SDS011;61763;51.416;5.442;2022-08-19T10:38:33;18.55;;;10.05;;
73515;SDS011;61763;51.416;5.442;2022-08-19T10:41:06;22.55;;;10.35;;
73515;SDS011;61763;51.416;5.442;2022-08-19T10:43:32;15.65;;;9.32;;
73515;SDS011;61763;51.416;5.442;2022-08-19T10:46:02;15.95;;;10.00;;
73515;SDS011;61763;51.416;5.442;2022-08-19T10:48:28;20.35;;;11.13;;
73515;SDS011;61763;51.416;5.442;2022-08-19T10:50:54;19.63;;;13.25;;
73515;SDS011;61763;51.416;5.442;2022-08-19T10:53:38;25.52;;;15.75;;
73515;SDS011;61763;51.416;5.442;2022-08-19T10:56:03;25.30;;;13.47;;
73515;SDS011;61763;51.416;5.442;2022-08-19T10:58:47;23.75;;;15.90;;
73515;SDS011;61763;51.416;5.442;2022-08-19T11:01:13;26.73;;;15.20;;
73515;SDS011;61763;51.416;5.442;2022-08-19T11:03:38;25.45;;;16.63;;
73515;SDS011;61763;51.416;5.442;2022-08-19T11:06:05;24.38;;;14.13;;
73515;SDS011;61763;51.416;5.442;2022-08-19T11:08:33;23.60;;;14.15;;
73515;SDS011;61763;51.416;5.442;2022-08-19T11:11:00;24.63;;;16.23;;
73515;SDS011;61763;51.416;5.442;2022-08-19T11:13:31;26.83;;;14.90;;
73515;SDS011;61763;51.416;5.442;2022-08-19T11:16:03;24.48;;;15.73;;
73515;SDS011;61763;51.416;5.442;2022-08-19T11:18:33;22.85;;;15.45;;
73515;SDS011;61763;51.416;5.442;2022-08-19T11:21:08;20.35;;;12.20;;
73515;SDS011;61763;51.416;5.442;2022-08-19T11:23:41;19.80;;;11.95;;
73515;SDS011;61763;51.416;5.442;2022-08-19T11:26:08;23.73;;;14.00;;
73515;SDS011;61763;51.416;5.442;2022-08-19T11:28:35;20.60;;;14.40;;
73515;SDS011;61763;51.416;5.442;2022-08-19T11:31:01;20.00;;;14.05;;
73515;SDS011;61763;51.416;5.442;2022-08-19T11:33:28;21.92;;;15.88;;
73515;SDS011;61763;51.416;5.442;2022-08-19T11:35:56;23.20;;;14.02;;
73515;SDS011;61763;51.416;5.442;2022-08-19T11:38:24;24.33;;;16.02;;
73515;SDS011;61763;51.416;5.442;2022-08-19T11:40:57;28.25;;;17.50;;
73515;SDS011;61763;51.416;5.442;2022-08-19T11:43:24;28.48;;;15.55;;
73515;SDS011;61763;51.416;5.442;2022-08-19T11:45:51;24.00;;;15.48;;
73515;SDS011;61763;51.416;5.442;2022-08-19T11:48:17;29.83;;;20.08;;
73515;SDS011;61763;51.416;5.442;2022-08-19T11:50:47;31.83;;;18.25;;
73515;SDS011;61763;51.416;5.442;2022-08-19T11:53:17;24.55;;;15.40;;
73515;SDS011;61763;51.416;5.442;2022-08-19T11:55:45;22.73;;;13.40;;
73515;SDS011;61763;51.416;5.442;2022-08-19T11:58:12;23.00;;;16.38;;
73515;SDS011;61763;51.416;5.442;2022-08-19T12:00:39;25.85;;;17.33;;
73515;SDS011;61763;51.416;5.442;2022-08-19T12:03:05;19.42;;;13.48;;
73515;SDS011;61763;51.416;5.442;2022-08-19T12:05:30;23.20;;;13.32;;
73515;SDS011;61763;51.416;5.442;2022-08-19T12:07:56;25.80;;;16.20;;
73515;SDS011;61763;51.416;5.442;2022-08-19T12:10:22;21.20;;;13.82;;
73515;SDS011;61763;51.416;5.442;2022-08-19T12:12:48;25.02;;;14.55;;
73515;SDS011;61763;51.416;5.442;2022-08-19T12:15:14;23.50;;;15.60;;
73515;SDS011;61763;51.416;5.442;2022-08-19T12:17:40;23.67;;;16.50;;
73515;SDS011;61763;51.416;5.442;2022-08-19T12:22:33;23.90;;;16.05;;
73515;SDS011;61763;51.416;5.442;2022-08-19T12:24:59;24.10;;;14.60;;
73515;SDS011;61763;51.416;5.442;2022-08-19T12:27:25;22.98;;;14.20;;
73515;SDS011;61763;51.416;5.442;2022-08-19T12:29:51;25.10;;;16.55;;
73515;SDS011;61763;51.416;5.442;2022-08-19T12:32:16;25.00;;;16.50;;
73515;SDS011;61763;51.416;5.442;2022-08-19T12:34:42;21.33;;;12.75;;
73515;SDS011;61763;51.416;5.442;2022-08-19T12:37:07;24.55;;;16.05;;
73515;SDS011;61763;51.416;5.442;2022-08-19T12:39:34;23.55;;;15.65;;
73515;SDS011;61763;51.416;5.442;2022-08-19T12:42:00;23.48;;;12.77;;
73515;SDS011;61763;51.416;5.442;2022-08-19T12:44:25;21.75;;;14.00;;
73515;SDS011;61763;51.416;5.442;2022-08-19T12:46:51;23.10;;;13.93;;
73515;SDS011;61763;51.416;5.442;2022-08-19T12:49:16;19.33;;;12.45;;
73515;SDS011;61763;51.416;5.442;2022-08-19T12:51:42;16.70;;;10.00;;
73515;SDS011;61763;51.416;5.442;2022-08-19T12:54:07;15.43;;;9.43;;
73515;SDS011;61763;51.416;5.442;2022-08-19T12:56:33;13.27;;;8.02;;
73515;SDS011;61763;51.416;5.442;2022-08-19T12:59:00;16.70;;;10.60;;
73515;SDS011;61763;51.416;5.442;2022-08-19T13:01:26;10.88;;;7.43;;
73515;SDS011;61763;51.416;5.442;2022-08-19T13:03:56;15.10;;;9.00;;
73515;SDS011;61763;51.416;5.442;2022-08-19T13:06:21;13.52;;;8.00;;
73515;SDS011;61763;51.416;5.442;2022-08-19T13:08:46;15.90;;;9.88;;
73515;SDS011;61763;51.416;5.442;2022-08-19T13:11:13;13.85;;;8.63;;
73515;SDS011;61763;51.416;5.442;2022-08-19T13:13:42;17.27;;;10.80;;
73515;SDS011;61763;51.416;5.442;2022-08-19T13:16:09;15.75;;;10.02;;
73515;SDS011;61763;51.416;5.442;2022-08-19T13:18:37;15.07;;;8.05;;
73515;SDS011;61763;51.416;5.442;2022-08-19T13:21:04;13.73;;;8.70;;
73515;SDS011;61763;51.416;5.442;2022-08-19T13:23:33;14.70;;;9.57;;
73515;SDS011;61763;51.416;5.442;2022-08-19T13:26:00;15.48;;;9.90;;
73515;SDS011;61763;51.416;5.442;2022-08-19T13:28:27;12.30;;;7.80;;
73515;SDS011;61763;51.416;5.442;2022-08-19T13:31:14;14.13;;;8.18;;
73515;SDS011;61763;51.416;5.442;2022-08-19T13:34:00;16.00;;;8.77;;
73515;SDS011;61763;51.416;5.442;2022-08-19T13:36:25;12.00;;;7.20;;
73515;SDS011;61763;51.416;5.442;2022-08-19T13:38:51;15.52;;;9.45;;
73515;SDS011;61763;51.416;5.442;2022-08-19T13:41:16;12.38;;;8.95;;
73515;SDS011;61763;51.416;5.442;2022-08-19T13:43:43;12.93;;;8.55;;
73515;SDS011;61763;51.416;5.442;2022-08-19T13:46:09;11.88;;;7.90;;
73515;SDS011;61763;51.416;5.442;2022-08-19T13:48:38;11.50;;;6.95;;
73515;SDS011;61763;51.416;5.442;2022-08-19T13:51:06;13.20;;;8.75;;
73515;SDS011;61763;51.416;5.442;2022-08-19T13:53:34;13.85;;;6.68;;
73515;SDS011;61763;51.416;5.442;2022-08-19T13:56:06;13.65;;;6.53;;
73515;SDS011;61763;51.416;5.442;2022-08-19T13:58:33;13.20;;;8.45;;
73515;SDS011;61763;51.416;5.442;2022-08-19T14:00:59;15.23;;;9.25;;
73515;SDS011;61763;51.416;5.442;2022-08-19T14:03:25;13.25;;;8.07;;
73515;SDS011;61763;51.416;5.442;2022-08-19T14:05:50;12.48;;;7.20;;
73515;SDS011;61763;51.416;5.442;2022-08-19T14:08:16;13.55;;;9.57;;
73515;SDS011;61763;51.416;5.442;2022-08-19T14:10:43;12.73;;;9.45;;
73515;SDS011;61763;51.416;5.442;2022-08-19T14:13:10;12.77;;;7.25;;
73515;SDS011;61763;51.416;5.442;2022-08-19T14:15:38;11.65;;;7.63;;
73515;SDS011;61763;51.416;5.442;2022-08-19T14:18:04;13.45;;;8.18;;
73515;SDS011;61763;51.416;5.442;2022-08-19T14:20:30;9.15;;;5.85;;
73515;SDS011;61763;51.416;5.442;2022-08-19T14:22:55;10.18;;;5.80;;
73515;SDS011;61763;51.416;5.442;2022-08-19T14:25:25;11.07;;;7.70;;
73515;SDS011;61763;51.416;5.442;2022-08-19T14:27:53;11.27;;;7.40;;
73515;SDS011;61763;51.416;5.442;2022-08-19T14:30:22;11.20;;;8.32;;
73515;SDS011;61763;51.416;5.442;2022-08-19T14:32:51;9.90;;;5.55;;
73515;SDS011;61763;51.416;5.442;2022-08-19T14:35:17;8.60;;;6.35;;
73515;SDS011;61763;51.416;5.442;2022-08-19T14:37:43;9.15;;;6.63;;
73515;SDS011;61763;51.416;5.442;2022-08-19T14:40:09;10.27;;;7.40;;
73515;SDS011;61763;51.416;5.442;2022-08-19T14:42:36;11.50;;;7.13;;
73515;SDS011;61763;51.416;5.442;2022-08-19T14:45:02;12.77;;;7.70;;
73515;SDS011;61763;51.416;5.442;2022-08-19T14:47:30;10.55;;;6.70;;
73515;SDS011;61763;51.416;5.442;2022-08-19T14:49:55;7.53;;;4.75;;
73515;SDS011;61763;51.416;5.442;2022-08-19T14:52:21;10.40;;;7.15;;
73515;SDS011;61763;51.416;5.442;2022-08-19T14:54:46;8.70;;;6.45;;
73515;SDS011;61763;51.416;5.442;2022-08-19T14:57:12;8.20;;;4.45;;
73515;SDS011;61763;51.416;5.442;2022-08-19T14:59:39;7.05;;;5.90;;
73515;SDS011;61763;51.416;5.442;2022-08-19T15:02:05;6.15;;;3.85;;
73515;SDS011;61763;51.416;5.442;2022-08-19T15:04:30;6.50;;;4.13;;
73515;SDS011;61763;51.416;5.442;2022-08-19T15:06:56;7.00;;;5.38;;
73515;SDS011;61763;51.416;5.442;2022-08-19T15:09:21;8.80;;;5.38;;
73515;SDS011;61763;51.416;5.442;2022-08-19T15:11:46;7.95;;;6.00;;